createdAt,value
2018-07-25T00:02:17.775Z,3.37
2018-07-25T00:12:17.139Z,3.37
2018-07-25T00:22:15.846Z,3.37
2018-07-25T00:32:13.762Z,3.37
2018-07-25T00:42:08.452Z,3.37
2018-07-25T00:52:06.569Z,3.37
2018-07-25T01:02:01.814Z,3.37
2018-07-25T01:11:54.214Z,3.37
2018-07-25T01:21:52.018Z,3.37
2018-07-25T01:31:47.975Z,3.36
2018-07-25T01:41:45.911Z,3.36
2018-07-25T01:51:44.473Z,3.36
2018-07-25T02:01:42.916Z,3.36
2018-07-25T02:11:36.633Z,3.36
2018-07-25T02:21:33.868Z,3.36
2018-07-25T02:31:31.164Z,3.36
2018-07-25T02:41:25.263Z,3.36
2018-07-25T02:51:24.821Z,3.36
2018-07-25T03:01:22.320Z,3.36
2018-07-25T03:11:20.002Z,3.36
2018-07-25T03:21:18.759Z,3.36
2018-07-25T03:31:15.659Z,3.36
2018-07-25T03:41:11.305Z,3.36
2018-07-25T03:51:07.316Z,3.36
2018-07-25T04:01:05.097Z,3.36
2018-07-25T04:11:01.225Z,3.36
2018-07-25T04:20:59.395Z,3.37
2018-07-25T04:30:57.001Z,3.37
2018-07-25T04:40:55.153Z,3.37
2018-07-25T04:50:55.287Z,3.38
2018-07-25T05:00:54.646Z,3.38
2018-07-25T05:10:52.371Z,3.38
2018-07-25T05:20:50.458Z,3.38
2018-07-25T05:30:48.660Z,3.39
2018-07-25T05:40:47.438Z,3.39
2018-07-25T05:50:41.463Z,3.39
2018-07-25T06:00:39.750Z,3.40
2018-07-25T06:10:34.370Z,3.40
2018-07-25T06:20:30.353Z,3.41
2018-07-25T06:30:25.140Z,3.42
2018-07-25T06:40:24.024Z,3.44
2018-07-25T06:50:18.990Z,3.45
2018-07-25T07:00:16.967Z,3.43
2018-07-25T07:10:11.360Z,3.42
2018-07-25T07:20:10.137Z,3.42
2018-07-25T07:30:07.906Z,3.41
2018-07-25T07:40:02.828Z,3.45
2018-07-25T07:49:59.964Z,3.44
2018-07-25T07:59:59.045Z,3.43
2018-07-25T08:09:54.507Z,3.43
2018-07-25T08:19:52.105Z,3.42
2018-07-25T08:29:45.732Z,3.42
2018-07-25T08:39:41.471Z,3.42
2018-07-25T08:49:40.988Z,3.42
2018-07-25T08:59:37.823Z,3.42
2018-07-25T09:09:33.780Z,3.42
2018-07-25T09:19:32.099Z,3.42
2018-07-25T09:29:30.806Z,3.42
2018-07-25T09:39:29.739Z,3.42
2018-07-25T09:49:25.649Z,3.41
2018-07-25T09:59:22.189Z,3.41
2018-07-25T10:09:17.047Z,3.41
2018-07-25T10:19:14.626Z,3.41
2018-07-25T10:29:13.712Z,3.41
2018-07-25T10:38:51.978Z,3.41
2018-07-25T10:48:30.234Z,3.41
2018-07-25T10:58:07.660Z,3.41
2018-07-25T11:07:46.234Z,3.41
2018-07-25T11:17:23.975Z,3.41
2018-07-25T11:27:01.471Z,3.41
2018-07-25T11:36:39.775Z,3.41
2018-07-25T11:46:18.383Z,3.42
2018-07-25T11:55:55.627Z,3.41
2018-07-25T12:05:34.586Z,3.42
2018-07-25T12:15:14.340Z,3.42
2018-07-25T12:24:49.426Z,3.41
2018-07-25T12:44:02.220Z,3.41
2018-07-25T12:53:38.605Z,3.41
2018-07-25T13:03:16.778Z,3.41
2018-07-25T13:12:58.359Z,3.41
2018-07-25T13:22:38.483Z,3.41
2018-07-25T13:32:15.444Z,3.41
2018-07-25T13:42:09.541Z,3.41
2018-07-25T13:51:49.101Z,3.41
2018-07-25T14:01:47.720Z,3.41
2018-07-25T14:11:40.931Z,3.41
2018-07-25T14:21:37.950Z,3.41
2018-07-25T14:31:31.358Z,3.40
2018-07-25T14:41:28.292Z,3.43
2018-07-25T14:51:26.909Z,3.42
2018-07-25T15:01:29.304Z,3.42
2018-07-25T15:11:28.094Z,3.42
2018-07-25T15:21:33.162Z,3.42
2018-07-25T15:31:24.385Z,3.42
2018-07-25T15:41:13.908Z,3.42
2018-07-25T15:51:07.757Z,3.41
2018-07-25T16:01:04.622Z,3.41
2018-07-25T16:10:54.832Z,3.41
2018-07-25T16:20:48.219Z,3.43
2018-07-25T16:30:45.380Z,3.44
2018-07-25T16:40:39.842Z,3.45
2018-07-25T16:50:34.499Z,3.46
2018-07-25T17:00:32.333Z,3.44
2018-07-25T17:10:29.423Z,3.44
2018-07-25T17:20:21.420Z,3.43
2018-07-25T17:30:18.371Z,3.43
2018-07-25T17:40:14.218Z,3.43
2018-07-25T17:50:07.908Z,3.43
2018-07-25T18:00:06.208Z,3.42
2018-07-25T18:10:00.097Z,3.42
2018-07-25T18:19:54.127Z,3.42
2018-07-25T18:29:49.551Z,3.42
2018-07-25T18:39:31.703Z,3.42
2018-07-25T18:49:29.714Z,3.41
2018-07-25T18:59:23.059Z,3.41
2018-07-25T19:09:17.630Z,3.41
2018-07-25T19:19:13.466Z,3.41
2018-07-25T19:29:10.672Z,3.41
2018-07-25T19:39:06.395Z,3.41
2018-07-25T19:49:00.421Z,3.40
2018-07-25T19:58:53.018Z,3.40
2018-07-25T20:08:50.068Z,3.40
2018-07-25T20:18:44.983Z,3.40
2018-07-25T20:28:38.127Z,3.40
2018-07-25T20:38:34.657Z,3.40
2018-07-25T20:48:32.200Z,3.40
2018-07-25T20:58:29.923Z,3.40
2018-07-25T21:08:24.487Z,3.40
2018-07-25T21:18:19.780Z,3.40
2018-07-25T21:28:14.971Z,3.39
2018-07-25T21:38:11.898Z,3.39
2018-07-25T21:48:06.417Z,3.39
2018-07-25T21:58:04.121Z,3.39
2018-07-25T22:08:01.313Z,3.39
2018-07-25T22:17:54.610Z,3.39
2018-07-25T22:27:52.501Z,3.39
2018-07-25T22:37:49.869Z,3.39
2018-07-25T22:47:47.011Z,3.39
2018-07-25T22:57:45.112Z,3.39
2018-07-25T23:07:42.671Z,3.39
2018-07-25T23:17:37.555Z,3.39
2018-07-25T23:27:35.924Z,3.39
2018-07-25T23:37:31.916Z,3.39
2018-07-25T23:47:27.094Z,3.39
2018-07-25T23:57:22.257Z,3.39
